createdAt,value
2018-10-01T00:01:52.091Z,20.10
2018-10-01T00:04:25.504Z,20.00
2018-10-01T00:06:58.731Z,20.00
2018-10-01T00:09:31.835Z,20.00
2018-10-01T00:12:05.041Z,19.90
2018-10-01T00:14:38.538Z,19.90
2018-10-01T00:17:11.553Z,19.90
2018-10-01T00:19:48.976Z,19.90
2018-10-01T00:22:26.397Z,19.90
2018-10-01T00:24:59.548Z,19.80
2018-10-01T00:27:32.772Z,19.80
2018-10-01T00:30:05.635Z,19.70
2018-10-01T00:32:39.262Z,19.70
2018-10-01T00:35:12.885Z,19.70
2018-10-01T00:37:46.610Z,19.70
2018-10-01T00:40:20.285Z,19.60
2018-10-01T00:42:54.013Z,19.60
2018-10-01T00:45:27.639Z,19.50
2018-10-01T00:48:00.788Z,19.50
2018-10-01T00:50:35.538Z,19.40
2018-10-01T00:53:09.154Z,19.30
2018-10-01T00:55:42.703Z,19.30
2018-10-01T00:58:16.396Z,19.30
2018-10-01T01:00:50.074Z,19.30
2018-10-01T01:03:23.712Z,19.30
2018-10-01T01:05:57.810Z,19.20
2018-10-01T01:08:35.192Z,19.20
2018-10-01T01:11:08.820Z,19.30
2018-10-01T01:13:42.264Z,19.30
2018-10-01T01:16:15.896Z,19.30
2018-10-01T01:18:49.638Z,19.30
2018-10-01T01:21:23.201Z,19.30
2018-10-01T01:23:57.207Z,19.40
2018-10-01T01:26:30.804Z,19.30
2018-10-01T01:29:04.637Z,19.40
2018-10-01T01:31:38.621Z,19.00
2018-10-01T01:34:12.140Z,18.80
2018-10-01T01:36:45.699Z,18.60
2018-10-01T01:39:19.231Z,18.40
2018-10-01T01:41:52.631Z,18.30
2018-10-01T01:44:26.248Z,18.10
2018-10-01T01:46:59.871Z,18.00
2018-10-01T01:49:33.496Z,18.00
2018-10-01T01:52:06.891Z,17.90
2018-10-01T01:54:40.366Z,17.90
2018-10-01T01:57:13.909Z,18.00
2018-10-01T01:59:47.506Z,18.00
2018-10-01T02:02:21.210Z,18.00
2018-10-01T02:04:54.677Z,18.10
2018-10-01T02:07:28.472Z,18.00
2018-10-01T02:10:02.240Z,17.90
2018-10-01T02:12:35.723Z,17.90
2018-10-01T02:15:21.166Z,17.90
2018-10-01T02:20:56.206Z,17.80
2018-10-01T02:23:38.711Z,17.80
2018-10-01T02:29:45.145Z,17.80
2018-10-01T02:32:20.110Z,17.80
2018-10-01T02:34:55.284Z,17.80
2018-10-01T02:37:31.534Z,17.70
2018-10-01T02:40:09.180Z,17.70
2018-10-01T02:42:44.005Z,17.60
2018-10-01T02:45:19.454Z,17.50
2018-10-01T02:47:53.804Z,17.40
2018-10-01T02:50:27.453Z,17.40
2018-10-01T02:53:04.873Z,17.40
2018-10-01T02:55:38.072Z,17.40
2018-10-01T02:58:11.196Z,17.40
2018-10-01T03:00:48.267Z,17.30
2018-10-01T03:03:57.518Z,17.30
2018-10-01T03:06:53.339Z,17.30
2018-10-01T03:12:48.011Z,17.20
2018-10-01T03:15:29.493Z,17.20
2018-10-01T03:21:24.050Z,17.30
2018-10-01T03:24:06.917Z,17.30
2018-10-01T03:26:43.245Z,17.20
2018-10-01T03:29:33.196Z,17.20
2018-10-01T03:32:30.116Z,17.20
2018-10-01T03:35:09.810Z,17.20
2018-10-01T03:38:05.639Z,17.20
2018-10-01T03:40:59.424Z,17.10
2018-10-01T03:43:54.737Z,17.10
2018-10-01T03:46:55.624Z,17.10
2018-10-01T03:49:53.899Z,17.10
2018-10-01T03:52:28.173Z,17.10
2018-10-01T03:55:03.320Z,17.10
2018-10-01T03:57:48.536Z,17.10
2018-10-01T04:00:21.269Z,17.10
2018-10-01T04:02:55.238Z,17.10
2018-10-01T04:05:28.616Z,17.10
2018-10-01T04:08:01.635Z,17.10
2018-10-01T04:14:19.693Z,17.10
2018-10-01T04:16:52.578Z,17.10
2018-10-01T04:19:26.794Z,17.20
2018-10-01T04:22:02.561Z,17.20
2018-10-01T04:24:36.381Z,17.20
2018-10-01T04:30:30.643Z,17.20
2018-10-01T04:33:04.458Z,17.10
2018-10-01T04:35:37.367Z,17.10
2018-10-01T04:38:10.757Z,17.10
2018-10-01T04:40:43.516Z,17.10
2018-10-01T04:43:16.506Z,17.10
2018-10-01T04:45:58.902Z,17.10
2018-10-01T04:48:33.016Z,17.10
2018-10-01T04:51:06.019Z,17.10
2018-10-01T04:53:39.363Z,17.10
2018-10-01T04:56:12.251Z,17.10
2018-10-01T05:01:23.739Z,17.00
2018-10-01T05:03:56.774Z,17.00
2018-10-01T05:06:29.845Z,17.00
2018-10-01T05:09:02.237Z,17.00
2018-10-01T05:14:36.063Z,17.00
2018-10-01T05:17:10.505Z,17.10
2018-10-01T05:19:43.840Z,17.00
2018-10-01T05:22:17.318Z,17.00
2018-10-01T05:24:55.886Z,17.00
2018-10-01T05:27:45.604Z,17.00
2018-10-01T05:30:40.879Z,16.90
2018-10-01T05:33:31.907Z,16.90
2018-10-01T05:36:26.857Z,16.90
2018-10-01T05:39:17.617Z,16.90
2018-10-01T05:42:10.883Z,16.90
2018-10-01T05:45:12.823Z,16.90
2018-10-01T05:48:10.132Z,16.90
2018-10-01T05:50:44.230Z,16.90
2018-10-01T05:53:17.093Z,16.90
2018-10-01T05:55:49.982Z,16.90
2018-10-01T05:58:22.686Z,16.90
2018-10-01T06:00:55.461Z,17.00
2018-10-01T06:03:28.306Z,17.00
2018-10-01T06:06:01.246Z,17.00
2018-10-01T06:08:34.222Z,17.00
2018-10-01T06:11:07.287Z,17.00
2018-10-01T06:13:40.057Z,17.00
2018-10-01T06:16:12.523Z,17.00
2018-10-01T06:18:46.671Z,17.00
2018-10-01T06:21:19.881Z,17.00
2018-10-01T06:23:52.791Z,17.00
2018-10-01T06:26:25.578Z,16.90
2018-10-01T06:28:58.370Z,16.90
2018-10-01T06:31:31.068Z,16.90
2018-10-01T06:34:04.183Z,16.90
2018-10-01T06:36:37.235Z,16.90
2018-10-01T06:39:12.821Z,16.90
2018-10-01T06:41:46.628Z,16.90
2018-10-01T06:44:19.406Z,16.90
2018-10-01T06:46:52.615Z,16.90
2018-10-01T06:52:47.310Z,16.90
2018-10-01T06:55:20.953Z,16.90
2018-10-01T06:57:55.463Z,16.90
2018-10-01T07:00:29.162Z,16.80
2018-10-01T07:03:02.564Z,16.80
2018-10-01T07:05:36.138Z,16.80
2018-10-01T07:08:09.592Z,16.90
2018-10-01T07:10:43.009Z,16.90
2018-10-01T07:13:16.729Z,16.90
2018-10-01T07:15:50.321Z,16.80
2018-10-01T07:18:23.941Z,16.80
2018-10-01T07:20:58.103Z,16.90
2018-10-01T07:23:31.668Z,16.90
2018-10-01T07:26:05.190Z,16.90
2018-10-01T07:28:38.789Z,16.80
2018-10-01T07:31:12.352Z,16.90
2018-10-01T07:33:45.905Z,16.80
2018-10-01T07:36:19.368Z,16.80
2018-10-01T07:38:52.923Z,16.80
2018-10-01T07:41:26.252Z,16.80
2018-10-01T07:43:59.572Z,16.70
2018-10-01T07:46:33.005Z,16.70
2018-10-01T07:49:06.453Z,16.70
2018-10-01T07:51:39.924Z,16.60
2018-10-01T07:54:13.475Z,16.70
2018-10-01T07:56:47.265Z,16.70
2018-10-01T07:59:20.836Z,16.70
2018-10-01T08:01:55.263Z,16.70
2018-10-01T08:04:28.967Z,16.70
2018-10-01T08:07:02.612Z,16.60
2018-10-01T08:09:36.107Z,16.60
2018-10-01T08:12:09.777Z,16.60
2018-10-01T08:14:43.527Z,16.60
2018-10-01T08:17:17.358Z,16.60
2018-10-01T08:19:50.903Z,16.50
2018-10-01T08:22:24.397Z,16.50
2018-10-01T08:24:57.968Z,16.50
2018-10-01T08:30:51.401Z,16.50
2018-10-01T08:36:52.956Z,16.50
2018-10-01T08:39:26.267Z,16.50
2018-10-01T08:41:59.627Z,16.50
2018-10-01T08:44:32.995Z,16.50
2018-10-01T08:47:06.639Z,16.40
2018-10-01T08:51:46.882Z,16.50
2018-10-01T08:54:29.760Z,16.50
2018-10-01T08:57:02.651Z,16.50
2018-10-01T08:59:36.199Z,16.50
2018-10-01T09:02:44.631Z,16.50
2018-10-01T09:05:17.639Z,16.50
2018-10-01T09:07:50.427Z,16.50
2018-10-01T09:10:23.275Z,16.50
2018-10-01T09:12:56.098Z,16.50
2018-10-01T09:15:29.067Z,16.60
2018-10-01T09:18:01.741Z,16.50
2018-10-01T09:23:55.267Z,16.50
2018-10-01T09:26:28.743Z,16.50
2018-10-01T09:29:01.291Z,16.50
2018-10-01T09:31:34.348Z,16.40
2018-10-01T09:34:06.775Z,16.40
2018-10-01T09:36:40.241Z,16.40
2018-10-01T09:39:13.041Z,16.30
2018-10-01T09:41:45.766Z,16.30
2018-10-01T09:44:18.661Z,16.30
2018-10-01T09:46:51.444Z,16.20
2018-10-01T09:49:24.447Z,16.20
2018-10-01T09:51:57.476Z,16.20
2018-10-01T09:54:29.824Z,16.10
2018-10-01T09:57:02.649Z,16.10
2018-10-01T09:59:35.373Z,16.20
2018-10-01T10:02:08.130Z,16.20
2018-10-01T10:04:41.076Z,16.20
2018-10-01T10:07:14.261Z,16.30
2018-10-01T10:09:46.494Z,16.30
2018-10-01T10:12:19.432Z,16.30
2018-10-01T10:14:52.219Z,16.40
2018-10-01T10:17:24.958Z,16.40
2018-10-01T10:19:57.910Z,16.40
2018-10-01T10:22:30.495Z,16.40
2018-10-01T10:25:03.065Z,16.40
2018-10-01T10:27:35.896Z,16.40
2018-10-01T10:30:09.373Z,16.50
2018-10-01T10:32:42.096Z,16.50
2018-10-01T10:35:15.063Z,16.50
2018-10-01T10:37:47.703Z,16.60
2018-10-01T10:40:20.425Z,16.60
2018-10-01T10:42:53.317Z,16.60
2018-10-01T10:45:25.905Z,16.70
2018-10-01T10:47:58.737Z,16.60
2018-10-01T10:50:31.562Z,16.60
2018-10-01T10:53:04.288Z,16.60
2018-10-01T10:55:37.095Z,16.60
2018-10-01T10:58:09.709Z,16.60
2018-10-01T11:01:23.116Z,16.50
2018-10-01T11:03:56.556Z,16.50
2018-10-01T11:06:29.626Z,16.40
2018-10-01T11:09:02.775Z,16.40
2018-10-01T11:11:35.783Z,16.40
2018-10-01T11:14:08.991Z,16.40
2018-10-01T11:16:42.044Z,16.30
2018-10-01T11:19:15.104Z,16.30
2018-10-01T11:21:48.142Z,16.30
2018-10-01T11:24:21.555Z,16.30
2018-10-01T11:26:54.674Z,16.20
2018-10-01T11:29:27.831Z,16.30
2018-10-01T11:32:00.919Z,16.20
2018-10-01T11:34:33.936Z,16.20
2018-10-01T11:37:07.705Z,16.20
2018-10-01T11:39:40.759Z,16.10
2018-10-01T11:42:14.016Z,16.10
2018-10-01T11:44:46.906Z,16.10
2018-10-01T11:47:20.033Z,16.10
2018-10-01T11:49:53.097Z,16.10
2018-10-01T11:52:26.420Z,16.20
2018-10-01T11:54:59.544Z,16.20
2018-10-01T11:57:32.784Z,16.20
2018-10-01T12:00:06.175Z,16.20
2018-10-01T12:02:39.260Z,16.20
2018-10-01T12:05:12.153Z,16.20
2018-10-01T12:07:45.919Z,16.20
2018-10-01T12:10:20.110Z,16.20
2018-10-01T12:12:53.018Z,16.20
2018-10-01T12:15:26.333Z,16.20
2018-10-01T12:17:59.579Z,16.20
2018-10-01T12:20:32.553Z,16.30
2018-10-01T12:23:05.439Z,16.30
2018-10-01T12:25:39.317Z,16.40
2018-10-01T12:28:12.515Z,16.40
2018-10-01T12:30:46.023Z,16.50
2018-10-01T12:33:20.571Z,16.50
2018-10-01T12:35:53.588Z,16.60
2018-10-01T12:38:26.808Z,16.70
2018-10-01T12:41:00.907Z,16.70
2018-10-01T12:43:33.744Z,16.80
2018-10-01T12:46:06.456Z,16.90
2018-10-01T12:48:39.532Z,17.00
2018-10-01T12:51:13.693Z,17.00
2018-10-01T12:53:46.996Z,17.10
2018-10-01T12:56:20.356Z,17.00
2018-10-01T12:58:53.447Z,17.00
2018-10-01T13:01:26.735Z,17.10
2018-10-01T13:04:43.717Z,17.20
2018-10-01T13:07:16.153Z,17.30
2018-10-01T13:09:48.376Z,17.20
2018-10-01T13:12:20.932Z,17.10
2018-10-01T13:14:53.573Z,16.90
2018-10-01T13:17:26.074Z,17.10
2018-10-01T13:19:58.489Z,17.00
2018-10-01T13:22:31.384Z,17.00
2018-10-01T13:25:03.535Z,17.30
2018-10-01T13:27:36.277Z,17.50
2018-10-01T13:30:08.903Z,17.90
2018-10-01T13:32:41.486Z,18.20
2018-10-01T13:35:14.383Z,18.40
2018-10-01T13:37:47.008Z,19.30
2018-10-01T13:40:19.943Z,19.20
2018-10-01T13:42:52.276Z,19.50
2018-10-01T13:45:24.587Z,19.50
2018-10-01T13:47:57.066Z,19.70
2018-10-01T13:50:29.489Z,19.50
2018-10-01T13:53:02.027Z,19.50
2018-10-01T13:55:34.244Z,19.90
2018-10-01T13:58:06.445Z,20.30
2018-10-01T14:00:39.697Z,20.00
2018-10-01T14:03:12.267Z,20.30
2018-10-01T14:05:45.124Z,19.70
2018-10-01T14:08:17.756Z,19.00
2018-10-01T14:10:50.427Z,18.90
2018-10-01T14:13:23.187Z,18.70
2018-10-01T14:15:55.524Z,18.60
2018-10-01T14:18:27.817Z,19.00
2018-10-01T14:21:00.248Z,20.00
2018-10-01T14:23:32.676Z,20.40
2018-10-01T14:26:05.339Z,20.20
2018-10-01T14:28:38.381Z,20.60
2018-10-01T14:31:11.134Z,20.50
2018-10-01T14:33:44.184Z,21.10
2018-10-01T14:36:16.730Z,20.90
2018-10-01T14:38:49.145Z,20.80
2018-10-01T14:41:21.894Z,21.10
2018-10-01T14:43:55.062Z,20.90
2018-10-01T14:46:27.354Z,20.60
2018-10-01T14:49:03.884Z,20.30
2018-10-01T14:51:36.334Z,20.30
2018-10-01T14:54:08.915Z,20.10
2018-10-01T14:56:41.302Z,20.20
2018-10-01T14:59:14.258Z,21.00
2018-10-01T15:01:46.542Z,21.10
2018-10-01T15:04:18.799Z,21.00
2018-10-01T15:06:51.345Z,20.60
2018-10-01T15:09:29.599Z,20.70
2018-10-01T15:12:24.259Z,20.70
2018-10-01T15:15:24.731Z,20.70
2018-10-01T15:18:20.568Z,20.50
2018-10-01T15:21:23.717Z,21.10
2018-10-01T15:24:21.658Z,21.00
2018-10-01T15:27:20.004Z,21.40
2018-10-01T15:30:14.119Z,20.90
2018-10-01T15:33:21.317Z,21.00
2018-10-01T15:36:22.475Z,21.00
2018-10-01T15:45:41.434Z,22.10
2018-10-01T15:48:15.650Z,22.70
2018-10-01T15:51:05.947Z,22.00
2018-10-01T15:57:03.409Z,21.60
2018-10-01T16:00:09.528Z,21.90
2018-10-01T16:02:59.940Z,21.70
2018-10-01T16:05:52.911Z,22.20
2018-10-01T16:08:44.296Z,23.40
2018-10-01T16:11:32.541Z,23.40
2018-10-01T16:14:25.150Z,23.40
2018-10-01T16:17:02.360Z,23.60
2018-10-01T16:19:38.516Z,24.00
2018-10-01T16:22:12.245Z,22.50
2018-10-01T16:24:46.689Z,22.80
2018-10-01T16:27:20.669Z,23.10
2018-10-01T16:29:53.521Z,22.90
2018-10-01T16:32:27.098Z,22.30
2018-10-01T16:35:03.456Z,22.80
2018-10-01T16:37:37.070Z,23.60
2018-10-01T16:40:10.012Z,23.10
2018-10-01T16:42:43.255Z,22.60
2018-10-01T16:45:24.127Z,23.00
2018-10-01T16:48:00.167Z,23.20
2018-10-01T16:50:33.251Z,23.20
2018-10-01T16:53:06.523Z,22.80
2018-10-01T16:55:39.640Z,22.10
2018-10-01T16:58:12.725Z,22.20
2018-10-01T17:00:46.059Z,22.40
2018-10-01T17:03:18.894Z,23.00
2018-10-01T17:05:56.249Z,23.70
2018-10-01T17:08:31.586Z,23.00
2018-10-01T17:11:06.435Z,23.00
2018-10-01T17:13:39.675Z,22.90
2018-10-01T17:19:33.995Z,21.80
2018-10-01T17:22:07.155Z,22.10
2018-10-01T17:24:40.551Z,22.20
2018-10-01T17:27:14.425Z,22.00
2018-10-01T17:29:47.441Z,21.80
2018-10-01T17:32:20.351Z,22.10
2018-10-01T17:34:54.095Z,22.50
2018-10-01T17:37:28.094Z,22.70
2018-10-01T17:40:01.588Z,23.10
2018-10-01T17:42:37.738Z,23.60
2018-10-01T17:45:11.309Z,23.40
2018-10-01T17:47:44.377Z,24.20
2018-10-01T17:50:18.428Z,24.80
2018-10-01T17:52:51.416Z,24.00
2018-10-01T17:55:24.460Z,24.50
2018-10-01T17:57:57.491Z,24.30
2018-10-01T18:00:32.553Z,24.00
2018-10-01T18:03:05.768Z,24.70
2018-10-01T18:05:39.103Z,24.60
2018-10-01T18:08:11.948Z,24.70
2018-10-01T18:10:45.155Z,24.40
2018-10-01T18:13:19.034Z,24.70
2018-10-01T18:15:55.331Z,24.70
2018-10-01T18:18:28.543Z,24.70
2018-10-01T18:21:01.809Z,24.80
2018-10-01T18:23:34.650Z,24.70
2018-10-01T18:26:07.551Z,25.30
2018-10-01T18:28:40.398Z,25.10
2018-10-01T18:31:15.359Z,25.30
2018-10-01T18:33:50.578Z,25.10
2018-10-01T18:36:26.312Z,25.30
2018-10-01T18:39:01.313Z,24.90
2018-10-01T18:41:36.372Z,25.10
2018-10-01T18:44:11.964Z,25.00
2018-10-01T18:46:48.142Z,23.90
2018-10-01T18:49:23.270Z,24.30
2018-10-01T18:51:58.565Z,24.20
2018-10-01T18:54:34.576Z,25.00
2018-10-01T18:57:09.808Z,25.00
2018-10-01T18:59:44.889Z,24.30
2018-10-01T19:05:39.814Z,25.10
2018-10-01T19:08:12.796Z,25.40
2018-10-01T19:10:46.490Z,24.50
2018-10-01T19:13:19.535Z,25.00
2018-10-01T19:15:52.414Z,25.00
2018-10-01T19:18:25.785Z,24.80
2018-10-01T19:20:58.790Z,24.60
2018-10-01T19:23:31.948Z,25.20
2018-10-01T19:26:08.663Z,24.60
2018-10-01T19:59:20.163Z,25.60
2018-10-01T20:05:14.089Z,25.00
2018-10-01T20:07:48.033Z,26.20
2018-10-01T20:10:23.378Z,27.20
2018-10-01T20:12:56.232Z,27.40
2018-10-01T20:15:29.367Z,27.20
2018-10-01T20:18:03.142Z,26.80
2018-10-01T20:20:36.167Z,26.20
2018-10-01T20:23:09.383Z,26.20
2018-10-01T20:29:05.274Z,25.40
2018-10-01T20:31:38.708Z,25.40
2018-10-01T20:34:12.328Z,25.90
2018-10-01T20:36:45.602Z,26.70
2018-10-01T20:39:19.196Z,26.20
2018-10-01T20:41:53.035Z,25.90
2018-10-01T20:44:27.703Z,25.10
2018-10-01T20:47:01.625Z,24.70
2018-10-01T20:53:05.878Z,24.90
2018-10-01T20:55:39.298Z,26.10
2018-10-01T20:58:12.845Z,26.00
2018-10-01T21:00:46.104Z,25.70
2018-10-01T21:03:19.482Z,25.30
2018-10-01T21:05:54.025Z,25.70
2018-10-01T21:08:27.647Z,25.40
2018-10-01T21:17:53.140Z,26.50
2018-10-01T21:20:25.852Z,24.90
2018-10-01T21:22:58.701Z,25.40
2018-10-01T21:25:35.259Z,26.50
2018-10-01T21:28:09.892Z,26.60
2018-10-01T21:30:43.044Z,26.00
2018-10-01T21:33:15.933Z,26.20
2018-10-01T21:39:12.999Z,25.70
2018-10-01T21:41:47.153Z,24.70
2018-10-01T21:44:22.829Z,24.30
2018-10-01T21:46:55.951Z,24.40
2018-10-01T21:49:28.545Z,24.60
2018-10-01T21:55:32.555Z,24.10
2018-10-01T21:58:05.423Z,24.70
2018-10-01T22:00:42.569Z,24.80
2018-10-01T22:03:16.254Z,24.50
2018-10-01T22:05:50.982Z,24.10
2018-10-01T22:08:33.297Z,24.00
2018-10-01T22:11:08.206Z,24.20
2018-10-01T22:13:42.108Z,24.10
2018-10-01T22:16:14.972Z,24.00
2018-10-01T22:22:09.769Z,23.40
2018-10-01T22:28:17.043Z,23.20
2018-10-01T22:30:49.981Z,23.20
2018-10-01T22:33:23.784Z,23.20
2018-10-01T22:35:56.942Z,23.20
2018-10-01T22:38:30.395Z,23.40
2018-10-01T22:41:03.299Z,23.20
2018-10-01T22:43:36.813Z,23.10
2018-10-01T22:46:10.133Z,23.10
2018-10-01T22:48:43.103Z,23.00
2018-10-01T22:51:16.969Z,22.60
2018-10-01T22:53:50.034Z,22.40
2018-10-01T22:56:23.043Z,22.40
2018-10-01T22:58:59.153Z,22.40
2018-10-01T23:01:33.196Z,22.30
2018-10-01T23:04:06.597Z,22.20
2018-10-01T23:06:42.086Z,22.10
2018-10-01T23:09:14.821Z,22.00
2018-10-01T23:11:54.014Z,22.10
2018-10-01T23:14:26.736Z,22.10
2018-10-01T23:17:00.383Z,21.90
2018-10-01T23:19:33.813Z,21.80
2018-10-01T23:22:06.995Z,21.80
2018-10-01T23:24:39.683Z,21.80
2018-10-01T23:27:14.436Z,21.60
2018-10-01T23:29:47.231Z,21.50
2018-10-01T23:32:20.095Z,21.40
2018-10-01T23:34:53.021Z,21.30
2018-10-01T23:37:26.023Z,21.30
2018-10-01T23:40:00.801Z,21.20
2018-10-01T23:42:34.385Z,21.30
2018-10-01T23:45:07.568Z,21.30
2018-10-01T23:47:40.734Z,21.20
2018-10-01T23:50:15.367Z,21.10
2018-10-01T23:52:48.474Z,20.90
2018-10-01T23:55:20.941Z,20.80
2018-10-01T23:57:54.560Z,20.70
